Race Coverage Navigation

TS # 17 / South Fork, CO  2019

 


TS STATS
TS Distance 47.97 
Total Distance 1030.69 
Miles To Go 2039.59 
TS Climbing 981 
Total Climbing
TS  Elevation
TS  Net Elevation 1544 
Map Filename Open Map 
Directions Filename  
Latitude 37.67 
Longitude -106.62 
Google Map  TimeStation Map 


TS Arrival Data
Arr Ord  #/Name Arrival DT TS Dst Avg This TS Avg Overall Ascending
 1 605 - Christian Echavarria  06/16/2019 7:54 47.97  4.29  9.24 
 2 607 - Sabine Bird (Team Bean)  06/16/2019 3:25 47.97  5.72  9.6 
 3 527 - TALABARDON (Herve Talabardon)  06/15/2019 22:47 47.97  10.86  10.07 
 4 618 - GREGORY ROBINSON  06/15/2019 21:56 47.97  4.86  10.13 
 5 608 - Elin Starup  06/15/2019 20:37 47.97  9.59  10.25 
 6 424 - Team i RON man Veterans supporting Veterans  06/15/2019 20:05 47.97  6.95  10.35 
 7 399 - Valerio Zamboni  06/15/2019 17:39 47.97  8.39  10.62 
 8 539 - Kari Rouvinen  06/15/2019 16:33 47.97  10.82  10.73 
 9 610 - Kabir Rachure  06/15/2019 13:30 47.97  9.5  11.06 
 10 611 - Marcelo Soares " MIXIRICA "  06/15/2019 12:47 47.97  7.97  11.15 
 11 510 - John C. Tarlton  06/15/2019 12:03 47.97  8.72  11.26 
 12 411 - Geoff Brunner  06/15/2019 11:57 47.97  5.45  11.28 
 13 161 - Seana Hogan  06/15/2019 11:26 47.97  6.9  11.29 
 14 559 - Team Martin RAAM 2019 (Martin Bergmeister)  06/15/2019 11:27 47.97  5.62  11.32 
 15 367 - Daniela Genovesi  06/15/2019 8:20 47.97  9.99  11.68 
 16 604 - Chieko Ozawa  06/15/2019 8:10 47.97  5.28  11.7 
 17 568 - Alexandra Meixner  06/15/2019 7:54 47.97  6.8  11.73 
 18 615 - Philipp Amhof  06/15/2019 5:42 47.97  6.06  12.06 
 19 603 - Alan Bradley  06/15/2019 4:24 47.97  5.19  12.27 
 20 416 - Leah Goldstein  06/15/2019 3:40 47.97  6.85  12.33 
 21 442 - Joe Barr  06/15/2019 1:58 47.97  16.73  12.65 
 22 622 - Thomas Odom-Team Kyle Pease Foundation  06/15/2019 1:13 47.97  12.09  12.72 
 23 623 - Ultra Paka Racing Team (Daniel Polman)  06/15/2019 1:04 47.97  10.94  12.74 
 24 T210 - Bike Wine Team  06/18/2019 22:18 47.97  7.8  13.02 
 25 329 - Peter Oyler  06/14/2019 22:05 47.97  9.99  13.3 
 26 612 - Markus K. Brandl  06/14/2019 20:39 47.97  7.93  13.5 
 27 T203 - JPsDuo  06/18/2019 18:47 47.97  9.14  13.61 
 28 T205 - Prevent Breast Cancer powered by Endomag  06/18/2019 17:09 47.97  8.52  13.92 
 29 617 - SOLO.kiwi (Craig Harper)  06/14/2019 17:56 47.97  9.96  13.98 
 30 T409 - Serpentine Golden Girls  06/18/2019 16:50 47.97  12.25  14.02 
 31 529 - Isa Pulver  06/14/2019 17:37 47.97  11.94  14.02 
 32 349 - Mark Pattinson  06/14/2019 17:38 47.97  12.51  14.11 
 33 T200 - AIR RELAX GoPro TEAM BRASIL  06/18/2019 14:43 47.97  13.02  14.37 
 34 288 - Dave Haase  06/14/2019 16:17 47.97  12.51  14.38 
 35 T207 - Team Life Time  06/18/2019 14:35 47.97  14.68  14.42 
 36 609 - Jakob Olsen  06/14/2019 15:16 47.97  11.75  14.53 
 37 T208 - Team Machine  06/18/2019 12:45 47.97  12.68  14.81 
 38 T417 - Team4RAAM 2019 powered by TGW Living Logistics  06/18/2019 12:20 47.97  12.74  14.96 
 39 279 - Marko Baloh  06/14/2019 13:05 47.97  13.14  15.06 
 40 T801 - Mind Over Matter  06/18/2019 10:34 47.97  12.85  15.37 
 41 T806 - Team SuperMarrow  06/18/2019 10:29 47.97  11.75  15.41 
 42 T402 - EA/WFP RAAM Team  06/18/2019 9:17 47.97  13.51  15.6 
 43 T413 - TEAM BRASIL - SKIPPER  06/18/2019 8:27 47.97  13.33  15.84 
 44 T204 - Lucan CRC  06/18/2019 6:48 47.97  12.04  16.17 
 45 T415 - TEAM FIRE VELO 935  06/18/2019 5:47 47.97  13.08  16.53 
 46 T206 - Project Linear Acceleration  06/18/2019 5:20 47.97  13.08  16.56 
 47 T405 - High Rollers  06/18/2019 5:02 47.97  14.54  16.68 
 48 T803 - Team EndoPark  06/18/2019 4:37 47.97  13.14  16.87 
 49 T410 - Soap-Aid  06/18/2019 4:00 47.97  12.85  16.99 
 50 T202 - Integra Medical - BAA Racing  06/18/2019 3:41 47.97  12.3  16.99 
 51 T403 - EKJ Denmark  06/18/2019 3:43 47.97  12.74  17.04 
 52 T414 - Brazil Nuts  06/18/2019 3:33 47.97  14.99  17.14 
 53 T418 - The Opportunists  06/18/2019 1:33 47.97  15.15  17.75 
 54 377 - Christoph Strasser  06/14/2019 2:30 47.97  14.11  17.82 
 55 T406 - Operation Walk Midwest  06/17/2019 23:48 47.97  15.39  18.23 
 56 T400 - Cantastic4  06/17/2019 23:31 47.97  17.13  18.29 
 57 T804 - Team FSHD Skyland Trail  06/17/2019 23:43 47.97  17.13  18.35 
 58 T808 - Antonia's Friends 2019  06/17/2019 23:34 47.97  17.66  18.42 
 59 T408 - Radeln-fuer-Kinder (Cycling-for-Kids)  06/17/2019 23:15 47.97  22.49  18.42 
 60 T416 - Team Rotary Raams Polio  06/17/2019 22:43 47.97  17.34  18.64 
 61 T802 - Scorchers  06/17/2019 21:55 47.97  18.33  18.95 
 62 T412 - Team Aspect  06/17/2019 21:19 47.97  15.64  19.1 
 63 T807 - Team ZOE International  06/17/2019 20:55 47.97  16.26  19.33 
 64 T407 - Julian Becker   06/17/2019 20:26 47.97  15.47  19.39 
 65 T805 - Team Oceanside  06/17/2019 20:15 47.97  16.26  19.56 
 66 T201 - EAT WELL  06/17/2019 19:03 47.97  17.44  19.81 
 67 T404 - Gentlemen of speed  06/17/2019 16:52 47.97  21.8  20.77 
 68 T401 - Data Techniques powered by Networks Centre  06/17/2019 16:03 47.97  19.71  21.09 
 69 T800 - Backstedt Racing Project 14  06/17/2019 14:36 47.97  21.01  21.88 
 70 T411 - team alpha - tischlerei groemmer  06/17/2019 13:53 47.97  21.48  22.15